createdAt,value
2023-02-01T00:02:33.349Z,12.57
2023-02-01T00:07:35.746Z,13.25
2023-02-01T00:12:37.442Z,13.68
2023-02-01T00:17:39.294Z,13.73
2023-02-01T00:22:40.990Z,12.82
2023-02-01T00:27:42.743Z,12.18
2023-02-01T00:32:44.463Z,12.35
2023-02-01T00:37:46.131Z,11.52
2023-02-01T00:42:47.780Z,12.23
2023-02-01T00:47:49.486Z,9.60
2023-02-01T00:52:51.280Z,11.00
2023-02-01T00:57:53.077Z,8.98
2023-02-01T01:02:54.917Z,9.40
2023-02-01T01:07:56.680Z,8.02
2023-02-01T01:12:59.524Z,8.63
2023-02-01T01:18:01.188Z,7.45
2023-02-01T01:23:03.868Z,6.93
2023-02-01T01:28:06.433Z,5.95
2023-02-01T01:33:08.238Z,5.68
2023-02-01T01:38:12.269Z,5.18
2023-02-01T01:43:16.330Z,5.97
2023-02-01T01:53:25.595Z,5.47
2023-02-01T01:58:29.900Z,6.30
2023-02-01T02:03:35.871Z,5.28
2023-02-01T02:08:37.962Z,5.43
2023-02-01T02:13:45.721Z,5.38
2023-02-01T02:19:06.207Z,5.07
2023-02-01T02:24:44.589Z,5.57
2023-02-01T02:30:08.107Z,5.63
2023-02-01T02:35:18.358Z,5.30
2023-02-01T02:40:34.878Z,6.68
2023-02-01T02:46:04.573Z,6.25
2023-02-01T02:51:31.317Z,6.15
2023-02-01T02:56:52.238Z,6.60
2023-02-01T03:02:13.536Z,6.50
2023-02-01T03:07:53.675Z,6.43
2023-02-01T03:13:00.853Z,5.60
2023-02-01T03:18:10.104Z,6.30
2023-02-01T03:23:16.585Z,5.43
2023-02-01T03:28:22.427Z,6.32
2023-02-01T03:33:27.443Z,5.80
2023-02-01T03:38:38.941Z,5.57
2023-02-01T03:43:49.184Z,5.53
2023-02-01T03:48:53.409Z,5.35
2023-02-01T03:53:56.525Z,5.97
2023-02-01T03:58:59.891Z,5.05
2023-02-01T04:04:02.830Z,5.32
2023-02-01T04:09:04.939Z,5.72
2023-02-01T04:14:06.699Z,5.70
2023-02-01T04:19:08.481Z,5.47
2023-02-01T04:24:10.277Z,5.80
2023-02-01T04:29:12.075Z,6.20
2023-02-01T04:34:13.800Z,6.25
2023-02-01T04:39:15.607Z,5.80
2023-02-01T04:44:19.144Z,6.75
2023-02-01T04:49:22.231Z,6.95
2023-02-01T04:54:23.939Z,6.88
2023-02-01T04:59:25.925Z,6.32
2023-02-01T05:04:27.688Z,6.47
2023-02-01T05:09:29.360Z,5.70
2023-02-01T05:14:31.096Z,6.25
2023-02-01T05:19:32.885Z,5.95
2023-02-01T05:24:35.708Z,6.35
2023-02-01T05:29:37.457Z,6.18
2023-02-01T05:34:39.218Z,4.88
2023-02-01T05:39:40.910Z,5.57
2023-02-01T05:44:43.773Z,5.05
2023-02-01T05:49:45.485Z,4.95
2023-02-01T05:54:50.601Z,4.93
2023-02-01T05:59:52.296Z,4.05
2023-02-01T06:04:54.076Z,4.28
2023-02-01T06:09:55.774Z,4.05
2023-02-01T06:14:57.474Z,4.28
2023-02-01T06:19:59.205Z,3.53
2023-02-01T06:25:00.993Z,3.33
2023-02-01T06:30:03.598Z,3.95
2023-02-01T06:35:06.799Z,3.65
2023-02-01T06:40:09.970Z,4.40
2023-02-01T06:45:11.848Z,4.30
2023-02-01T06:50:13.546Z,4.65
2023-02-01T06:55:15.399Z,4.32
2023-02-01T07:00:17.495Z,4.93
2023-02-01T07:05:19.214Z,4.47
2023-02-01T07:10:22.290Z,4.57
2023-02-01T07:15:25.486Z,4.43
2023-02-01T07:20:27.268Z,3.37
2023-02-01T07:25:29.104Z,4.35
2023-02-01T07:30:30.965Z,4.70
2023-02-01T07:35:32.904Z,4.95
2023-02-01T07:40:34.706Z,5.28
2023-02-01T07:45:37.251Z,5.07
2023-02-01T07:50:39.077Z,4.60
2023-02-01T07:55:41.363Z,5.32
2023-02-01T08:01:02.326Z,5.75
2023-02-01T08:06:04.597Z,5.07
2023-02-01T08:11:07.917Z,4.82
2023-02-01T08:16:11.806Z,4.67
2023-02-01T08:21:23.131Z,5.43
2023-02-01T08:26:27.119Z,5.82
2023-02-01T08:36:32.207Z,5.20
2023-02-01T08:41:33.938Z,5.00
2023-02-01T08:46:35.719Z,5.32
2023-02-01T08:51:37.422Z,5.03
2023-02-01T08:56:39.234Z,4.97
2023-02-01T09:01:41.034Z,4.75
2023-02-01T09:06:42.876Z,4.45
2023-02-01T09:11:44.670Z,4.78
2023-02-01T09:16:46.394Z,4.53
2023-02-01T09:21:48.045Z,4.63
2023-02-01T09:26:50.147Z,5.10
2023-02-01T09:32:02.940Z,4.82
2023-02-01T09:37:05.668Z,4.60
2023-02-01T09:43:01.675Z,4.50
2023-02-01T09:48:17.755Z,4.10
2023-02-01T09:53:31.544Z,4.22
2023-02-01T09:58:45.578Z,4.60
2023-02-01T10:03:47.940Z,4.20
2023-02-01T10:09:21.847Z,4.72
2023-02-01T10:14:53.474Z,4.93
2023-02-01T10:20:44.718Z,3.90
2023-02-01T10:25:56.565Z,3.72
2023-02-01T10:30:59.998Z,4.13
2023-02-01T10:36:04.792Z,4.07
2023-02-01T10:41:15.569Z,4.13
2023-02-01T10:46:18.527Z,4.18
2023-02-01T10:51:53.378Z,4.20
2023-02-01T10:56:55.172Z,4.07
2023-02-01T11:02:02.921Z,3.78
2023-02-01T11:07:23.952Z,3.55
2023-02-01T11:12:38.044Z,3.78
2023-02-01T11:17:57.105Z,4.28
2023-02-01T11:22:59.189Z,3.95
2023-02-01T11:28:00.987Z,3.55
2023-02-01T11:33:06.541Z,3.70
2023-02-01T11:38:30.333Z,4.22
2023-02-01T11:43:32.040Z,4.25
2023-02-01T11:48:34.486Z,3.70
2023-02-01T11:54:03.716Z,4.10
2023-02-01T11:59:20.595Z,3.58
2023-02-01T12:04:49.354Z,4.50
2023-02-01T12:10:24.000Z,3.53
2023-02-01T12:15:48.484Z,3.53
2023-02-01T12:21:36.463Z,3.53
2023-02-01T12:27:14.858Z,4.10
2023-02-01T12:32:47.786Z,3.13
2023-02-01T12:38:20.469Z,3.03
2023-02-01T12:43:50.298Z,3.25
2023-02-01T12:49:03.867Z,3.28
2023-02-01T12:54:24.133Z,3.83
2023-02-01T12:59:39.974Z,3.35
2023-02-01T13:05:04.286Z,4.70
2023-02-01T13:10:38.303Z,4.13
2023-02-01T13:15:47.410Z,3.43
2023-02-01T13:21:03.684Z,3.53
2023-02-01T13:26:05.484Z,2.67
2023-02-01T13:31:44.142Z,3.55
2023-02-01T13:37:27.482Z,3.40
2023-02-01T13:42:45.606Z,2.90
2023-02-01T13:47:50.682Z,3.47
2023-02-01T13:53:01.833Z,2.88
2023-02-01T13:58:09.597Z,2.80
2023-02-01T14:03:16.617Z,2.88
2023-02-01T14:08:42.332Z,3.53
2023-02-01T14:13:43.950Z,3.00
2023-02-01T14:18:47.304Z,3.00
2023-02-01T14:23:57.956Z,2.80
2023-02-01T14:29:04.287Z,2.88
2023-02-01T14:34:36.688Z,3.58
2023-02-01T14:39:47.430Z,3.35
2023-02-01T14:44:58.230Z,3.38
2023-02-01T14:50:27.553Z,3.03
2023-02-01T14:55:42.863Z,2.92
2023-02-01T15:00:54.572Z,2.78
2023-02-01T15:06:01.813Z,2.80
2023-02-01T15:11:10.235Z,2.60
2023-02-01T15:16:16.758Z,2.80
2023-02-01T15:21:31.198Z,2.63
2023-02-01T15:26:34.783Z,3.30
2023-02-01T15:31:45.894Z,2.70
2023-02-01T15:37:01.971Z,3.00
2023-02-01T15:42:16.448Z,3.30
2023-02-01T15:47:21.404Z,2.70
2023-02-01T15:52:36.230Z,2.90
2023-02-01T15:57:41.798Z,2.92
2023-02-01T16:02:52.425Z,2.45
2023-02-01T16:08:05.634Z,2.65
2023-02-01T16:13:08.063Z,3.05
2023-02-01T16:18:10.642Z,3.13
2023-02-01T16:23:12.290Z,3.30
2023-02-01T16:28:13.949Z,3.58
2023-02-01T16:33:22.677Z,3.33
2023-02-01T16:38:24.681Z,2.75
2023-02-01T16:43:27.266Z,3.50
2023-02-01T16:48:31.718Z,2.75
2023-02-01T16:53:41.719Z,3.05
2023-02-01T16:58:50.829Z,3.45
2023-02-01T17:03:52.682Z,3.67
2023-02-01T17:08:56.627Z,3.75
2023-02-01T17:14:14.422Z,3.88
2023-02-01T17:19:20.314Z,3.20
2023-02-01T17:24:25.931Z,4.47
2023-02-01T17:29:30.485Z,3.97
2023-02-01T17:34:32.154Z,3.10
2023-02-01T17:39:52.381Z,4.72
2023-02-01T17:44:57.829Z,3.80
2023-02-01T17:49:59.470Z,4.93
2023-02-01T17:55:01.090Z,4.88
2023-02-01T18:00:03.495Z,4.57
2023-02-01T18:05:42.639Z,5.13
2023-02-01T18:10:45.068Z,4.78
2023-02-01T18:15:46.964Z,4.82
2023-02-01T18:20:49.824Z,5.90
2023-02-01T18:25:52.819Z,5.35
2023-02-01T18:30:54.630Z,5.45
2023-02-01T18:35:56.364Z,6.35
2023-02-01T18:40:58.228Z,6.40
2023-02-01T18:45:59.963Z,6.47
2023-02-01T18:51:01.804Z,6.55
2023-02-01T18:56:09.892Z,5.82
2023-02-01T19:01:18.524Z,6.13
2023-02-01T19:06:21.644Z,6.22
2023-02-01T19:11:23.652Z,6.25
2023-02-01T19:16:25.468Z,6.40
2023-02-01T19:21:27.169Z,5.95
2023-02-01T19:26:29.003Z,6.50
2023-02-01T19:31:30.848Z,6.18
2023-02-01T19:36:32.731Z,6.43
2023-02-01T19:41:34.464Z,6.03
2023-02-01T19:46:36.256Z,6.65
2023-02-01T19:51:40.946Z,5.40
2023-02-01T19:56:44.557Z,6.25
2023-02-01T20:01:46.670Z,4.15
2023-02-01T20:06:49.319Z,5.22
2023-02-01T20:11:54.128Z,5.90
2023-02-01T20:16:56.341Z,4.57
2023-02-01T20:21:59.312Z,5.70
2023-02-01T20:27:02.231Z,5.32
2023-02-01T20:32:04.090Z,5.28
2023-02-01T20:37:05.922Z,4.82
2023-02-01T20:42:08.088Z,5.28
2023-02-01T20:47:09.839Z,5.88
2023-02-01T20:52:11.910Z,5.43
2023-02-01T20:57:13.854Z,5.68
2023-02-01T21:02:15.658Z,5.07
2023-02-01T21:07:17.422Z,5.68
2023-02-01T21:12:19.142Z,4.78
2023-02-01T21:17:21.158Z,5.30
2023-02-01T21:22:22.897Z,4.65
2023-02-01T21:27:24.741Z,4.72
2023-02-01T21:32:26.395Z,5.53
2023-02-01T21:37:28.148Z,5.00
2023-02-01T21:42:30.897Z,5.05
2023-02-01T21:47:32.559Z,5.30
2023-02-01T21:52:38.886Z,5.10
2023-02-01T21:57:41.030Z,4.97
2023-02-01T22:02:42.847Z,6.10
2023-02-01T22:07:44.608Z,5.63
2023-02-01T22:12:46.303Z,5.30
2023-02-01T22:17:48.139Z,5.30
2023-02-01T22:22:49.788Z,5.60
2023-02-01T22:28:30.900Z,6.22
2023-02-01T22:33:13.598Z,5.97
2023-02-01T22:38:16.397Z,5.45
2023-02-01T22:43:18.555Z,5.10
2023-02-01T22:48:20.304Z,5.72
2023-02-01T22:53:21.956Z,6.43
2023-02-01T22:58:24.262Z,6.57
2023-02-01T23:03:26.094Z,6.47
2023-02-01T23:08:27.775Z,6.25
2023-02-01T23:13:29.943Z,6.43
2023-02-01T23:18:31.670Z,6.20
2023-02-01T23:23:33.744Z,6.28
2023-02-01T23:28:35.503Z,5.72
2023-02-01T23:33:38.271Z,5.85
2023-02-01T23:38:40.022Z,5.32
2023-02-01T23:44:00.558Z,5.25
2023-02-01T23:49:04.122Z,5.80
2023-02-01T23:54:07.152Z,5.47
2023-02-01T23:59:20.300Z,5.93
